createdAt,value
2023-05-15T00:00:33.119Z,9.05
2023-05-15T00:02:59.900Z,9.04
2023-05-15T00:05:26.840Z,9.01
2023-05-15T00:07:53.664Z,9.04
2023-05-15T00:10:20.376Z,9.05
2023-05-15T00:12:47.016Z,9.08
2023-05-15T00:15:13.627Z,9.07
2023-05-15T00:17:40.589Z,9.10
2023-05-15T00:20:08.855Z,9.11
2023-05-15T00:22:35.656Z,9.12
2023-05-15T00:25:02.346Z,9.12
2023-05-15T00:27:28.979Z,9.18
2023-05-15T00:29:55.666Z,9.18
2023-05-15T00:32:22.295Z,9.21
2023-05-15T00:34:48.925Z,9.29
2023-05-15T00:37:16.104Z,9.31
2023-05-15T00:39:42.664Z,9.35
2023-05-15T00:42:09.529Z,9.39
2023-05-15T00:44:37.017Z,9.42
2023-05-15T00:47:04.261Z,9.43
2023-05-15T00:49:32.607Z,9.40
2023-05-15T00:52:01.999Z,9.39
2023-05-15T00:54:28.701Z,9.35
2023-05-15T00:56:59.713Z,9.32
2023-05-15T00:59:28.520Z,9.24
2023-05-15T01:01:55.506Z,9.18
2023-05-15T01:04:22.813Z,9.11
2023-05-15T01:06:49.902Z,9.04
2023-05-15T01:09:17.454Z,8.97
2023-05-15T01:11:46.743Z,8.88
2023-05-15T01:14:13.363Z,8.81
2023-05-15T01:16:41.411Z,8.77
2023-05-15T01:19:08.073Z,8.67
2023-05-15T01:21:34.914Z,8.61
2023-05-15T01:24:18.343Z,8.54
2023-05-15T01:27:10.628Z,8.50
2023-05-15T01:29:55.328Z,8.44
2023-05-15T01:32:32.140Z,8.42
2023-05-15T01:35:09.093Z,8.36
2023-05-15T01:37:40.381Z,8.28
2023-05-15T01:40:10.220Z,8.23
2023-05-15T01:42:42.018Z,8.22
2023-05-15T01:45:11.699Z,8.17
2023-05-15T01:47:43.621Z,8.13
2023-05-15T01:50:14.534Z,8.10
2023-05-15T01:52:44.995Z,8.02
2023-05-15T01:55:14.555Z,8.02
2023-05-15T01:57:42.597Z,7.96
2023-05-15T02:00:11.076Z,7.96
2023-05-15T02:02:38.228Z,7.91
2023-05-15T02:05:05.734Z,7.88
2023-05-15T02:07:33.575Z,7.86
2023-05-15T02:10:02.490Z,7.84
2023-05-15T02:12:30.571Z,7.82
2023-05-15T02:14:59.687Z,7.84
2023-05-15T02:17:29.479Z,7.85
2023-05-15T02:19:56.144Z,7.84
2023-05-15T02:22:22.799Z,7.79
2023-05-15T02:24:49.430Z,7.71
2023-05-15T02:27:22.530Z,7.64
2023-05-15T02:30:15.789Z,7.63
2023-05-15T02:32:48.071Z,7.55
2023-05-15T02:35:36.330Z,7.48
2023-05-15T02:38:11.676Z,7.46
2023-05-15T02:40:40.429Z,7.37
2023-05-15T02:43:08.276Z,7.38
2023-05-15T02:45:35.691Z,7.33
2023-05-15T02:48:03.784Z,7.27
2023-05-15T02:50:30.998Z,7.28
2023-05-15T02:53:07.578Z,7.26
2023-05-15T02:55:34.558Z,7.24
2023-05-15T02:58:02.247Z,7.17
2023-05-15T03:00:29.132Z,7.13
2023-05-15T03:02:55.765Z,7.12
2023-05-15T03:05:22.558Z,7.07
2023-05-15T03:07:49.304Z,7.06
2023-05-15T03:10:16.533Z,7.03
2023-05-15T03:12:43.866Z,7.02
2023-05-15T03:15:10.644Z,7.00
2023-05-15T03:17:37.415Z,7.02
2023-05-15T03:20:04.941Z,7.00
2023-05-15T03:22:31.559Z,7.00
2023-05-15T03:24:58.234Z,7.04
2023-05-15T03:27:24.816Z,7.03
2023-05-15T03:29:51.397Z,7.02
2023-05-15T03:32:18.267Z,7.03
2023-05-15T03:34:44.987Z,7.03
2023-05-15T03:37:11.607Z,7.02
2023-05-15T03:39:38.152Z,6.99
2023-05-15T03:42:05.204Z,6.97
2023-05-15T03:44:31.785Z,7.02
2023-05-15T03:46:58.545Z,6.99
2023-05-15T03:49:25.232Z,7.04
2023-05-15T03:51:52.142Z,7.06
2023-05-15T03:54:18.831Z,7.09
2023-05-15T03:56:45.538Z,7.12
2023-05-15T03:59:12.054Z,7.13
2023-05-15T04:01:51.069Z,7.16
2023-05-15T04:04:25.299Z,7.26
2023-05-15T04:06:51.832Z,7.31
2023-05-15T04:09:18.506Z,7.40
2023-05-15T04:11:46.676Z,7.50
2023-05-15T04:14:13.571Z,7.57
2023-05-15T04:16:40.263Z,7.64
2023-05-15T04:19:06.882Z,7.67
2023-05-15T04:21:33.491Z,7.70
2023-05-15T04:24:00.031Z,7.81
2023-05-15T04:26:26.643Z,7.84
2023-05-15T04:29:03.434Z,7.95
2023-05-15T04:31:31.809Z,7.99
2023-05-15T04:33:58.623Z,8.09
2023-05-15T04:36:25.402Z,8.17
2023-05-15T04:38:52.077Z,8.28
2023-05-15T04:41:18.736Z,8.36
2023-05-15T04:43:45.948Z,8.52
2023-05-15T04:46:12.843Z,8.68
2023-05-15T04:48:39.560Z,8.83
2023-05-15T04:51:07.497Z,9.00
2023-05-15T04:53:34.238Z,9.15
2023-05-15T04:56:00.914Z,9.29
2023-05-15T04:58:27.513Z,9.45
2023-05-15T05:00:54.152Z,9.64
2023-05-15T05:03:21.012Z,9.90
2023-05-15T05:05:47.872Z,10.21
2023-05-15T05:08:14.480Z,10.46
2023-05-15T05:10:41.028Z,10.68
2023-05-15T05:13:07.628Z,10.88
2023-05-15T05:15:34.312Z,11.09
2023-05-15T05:18:01.522Z,11.22
2023-05-15T05:20:28.127Z,11.40
2023-05-15T05:22:54.816Z,11.58
2023-05-15T05:25:21.481Z,11.79
2023-05-15T05:27:48.059Z,12.03
2023-05-15T05:30:15.065Z,12.26
2023-05-15T05:32:41.800Z,12.49
2023-05-15T05:35:09.859Z,12.76
2023-05-15T05:37:38.141Z,13.05
2023-05-15T05:40:06.867Z,13.31
2023-05-15T05:42:33.449Z,13.56
2023-05-15T05:45:00.373Z,13.82
2023-05-15T05:47:26.981Z,14.03
2023-05-15T05:49:55.030Z,14.25
2023-05-15T05:52:21.699Z,14.52
2023-05-15T05:54:48.292Z,14.88
2023-05-15T05:57:15.127Z,15.85
2023-05-15T05:59:41.825Z,17.75
2023-05-15T06:02:09.006Z,18.73
2023-05-15T06:04:36.141Z,19.85
2023-05-15T06:07:03.337Z,18.68
2023-05-15T06:09:30.007Z,17.61
2023-05-15T06:11:56.871Z,16.81
2023-05-15T06:14:23.445Z,16.29
2023-05-15T06:16:50.329Z,15.92
2023-05-15T06:19:17.177Z,15.71
2023-05-15T06:21:43.959Z,15.65
2023-05-15T06:24:10.553Z,15.67
2023-05-15T06:26:37.067Z,16.06
2023-05-15T06:29:03.660Z,16.29
2023-05-15T06:31:30.385Z,16.39
2023-05-15T06:33:56.977Z,16.32
2023-05-15T06:36:23.988Z,16.30
2023-05-15T06:38:50.690Z,16.30
2023-05-15T06:41:17.247Z,16.32
2023-05-15T06:43:43.820Z,16.29
2023-05-15T06:46:10.567Z,16.50
2023-05-15T06:48:37.284Z,16.91
2023-05-15T06:51:03.959Z,16.80
2023-05-15T06:53:30.718Z,16.99
2023-05-15T06:55:57.306Z,17.22
2023-05-15T06:58:24.307Z,17.58
2023-05-15T07:00:52.113Z,18.30
2023-05-15T07:03:20.105Z,20.63
2023-05-15T07:05:46.812Z,22.53
2023-05-15T07:08:13.411Z,24.08
2023-05-15T07:10:39.949Z,25.02
2023-05-15T07:13:06.766Z,25.51
2023-05-15T07:15:33.294Z,26.32
2023-05-15T07:18:00.004Z,27.34
2023-05-15T07:20:29.579Z,27.88
2023-05-15T07:22:57.695Z,26.98
2023-05-15T07:25:25.736Z,26.24
2023-05-15T07:27:52.909Z,25.44
2023-05-15T07:30:19.833Z,24.20
2023-05-15T07:32:46.585Z,23.04
2023-05-15T07:35:13.210Z,22.13
2023-05-15T07:37:40.160Z,21.45
2023-05-15T07:40:07.673Z,20.84
2023-05-15T07:42:34.471Z,20.79
2023-05-15T07:45:01.100Z,20.52
2023-05-15T07:47:27.707Z,20.43
2023-05-15T07:49:54.332Z,20.38
2023-05-15T07:52:20.920Z,20.22
2023-05-15T07:54:47.504Z,20.07
2023-05-15T07:57:14.173Z,20.01
2023-05-15T07:59:40.755Z,19.98
2023-05-15T08:02:07.494Z,20.01
2023-05-15T08:04:34.330Z,20.08
2023-05-15T08:07:01.061Z,20.01
2023-05-15T08:09:27.585Z,19.98
2023-05-15T08:12:14.288Z,19.94
2023-05-15T08:14:41.045Z,19.84
2023-05-15T08:17:07.760Z,19.97
2023-05-15T08:19:34.271Z,19.98
2023-05-15T08:22:00.827Z,20.01
2023-05-15T08:24:27.372Z,19.97
2023-05-15T08:26:53.977Z,19.87
2023-05-15T08:29:20.553Z,19.78
2023-05-15T08:31:47.252Z,19.71
2023-05-15T08:34:13.831Z,19.59
2023-05-15T08:36:40.649Z,19.54
2023-05-15T08:39:09.177Z,19.46
2023-05-15T08:41:47.933Z,19.30
2023-05-15T08:44:14.716Z,19.29
2023-05-15T08:46:41.483Z,19.22
2023-05-15T08:49:19.942Z,19.23
2023-05-15T08:51:48.099Z,19.30
2023-05-15T08:54:15.535Z,19.34
2023-05-15T08:56:42.951Z,19.46
2023-05-15T08:59:09.571Z,19.45
2023-05-15T09:01:36.429Z,19.54
2023-05-15T09:04:04.311Z,19.60
2023-05-15T09:06:33.716Z,19.59
2023-05-15T09:09:01.679Z,19.60
2023-05-15T09:11:29.894Z,19.63
2023-05-15T09:13:59.900Z,19.70
2023-05-15T09:16:27.223Z,19.71
2023-05-15T09:18:54.192Z,19.64
2023-05-15T09:21:27.823Z,19.67
2023-05-15T09:24:18.905Z,19.74
2023-05-15T09:26:47.170Z,19.81
2023-05-15T09:29:18.943Z,19.87
2023-05-15T09:31:49.324Z,19.87
2023-05-15T09:34:16.160Z,19.75
2023-05-15T09:36:44.939Z,19.77
2023-05-15T09:39:11.697Z,19.61
2023-05-15T09:41:42.963Z,19.60
2023-05-15T09:44:21.432Z,19.56
2023-05-15T09:46:51.368Z,19.64
2023-05-15T09:49:21.112Z,19.61
2023-05-15T09:51:49.810Z,19.60
2023-05-15T09:54:19.739Z,19.70
2023-05-15T09:56:47.888Z,19.75
2023-05-15T09:59:16.118Z,19.73
2023-05-15T10:01:46.963Z,19.74
2023-05-15T10:04:14.054Z,19.64
2023-05-15T10:06:43.269Z,19.46
2023-05-15T10:09:11.033Z,19.32
2023-05-15T10:11:39.877Z,19.10
2023-05-15T10:14:08.092Z,19.02
2023-05-15T10:16:36.070Z,18.91
2023-05-15T10:19:08.940Z,18.76
2023-05-15T10:21:37.591Z,18.60
2023-05-15T10:24:05.237Z,18.48
2023-05-15T10:26:42.624Z,18.37
2023-05-15T10:29:11.703Z,18.33
2023-05-15T10:31:39.637Z,18.27
2023-05-15T10:34:07.550Z,18.29
2023-05-15T10:36:35.820Z,18.36
2023-05-15T10:39:05.126Z,18.33
2023-05-15T10:41:38.614Z,18.31
2023-05-15T10:44:05.383Z,18.43
2023-05-15T10:46:34.526Z,18.58
2023-05-15T10:49:01.790Z,18.81
2023-05-15T10:51:30.286Z,18.94
2023-05-15T10:53:57.582Z,19.05
2023-05-15T10:56:39.394Z,19.20
2023-05-15T10:59:10.593Z,19.37
2023-05-15T11:01:39.160Z,19.54
2023-05-15T11:04:13.904Z,19.71
2023-05-15T11:06:46.017Z,20.11
2023-05-15T11:09:21.330Z,20.57
2023-05-15T11:11:55.712Z,20.94
2023-05-15T11:14:27.078Z,21.38
2023-05-15T11:16:53.927Z,21.65
2023-05-15T11:19:24.369Z,21.96
2023-05-15T11:22:03.062Z,22.08
2023-05-15T11:24:53.592Z,21.99
2023-05-15T11:27:42.008Z,22.03
2023-05-15T11:30:11.964Z,22.94
2023-05-15T11:32:54.304Z,23.71
2023-05-15T11:35:26.463Z,24.62
2023-05-15T11:38:02.131Z,24.76
2023-05-15T11:40:52.621Z,24.47
2023-05-15T11:43:29.393Z,25.96
2023-05-15T11:46:05.006Z,26.61
2023-05-15T11:48:42.527Z,26.09
2023-05-15T11:51:18.272Z,25.80
2023-05-15T11:53:45.430Z,25.22
2023-05-15T11:56:24.186Z,26.40
2023-05-15T11:58:55.466Z,27.18
2023-05-15T12:01:22.177Z,27.96
2023-05-15T12:03:49.795Z,28.68
2023-05-15T12:06:17.300Z,29.19
2023-05-15T12:08:44.302Z,29.49
2023-05-15T12:11:12.188Z,29.46
2023-05-15T12:13:38.803Z,29.27
2023-05-15T12:16:05.879Z,29.39
2023-05-15T12:18:33.202Z,29.97
2023-05-15T12:21:00.278Z,29.66
2023-05-15T12:23:28.371Z,30.31
2023-05-15T12:26:03.281Z,30.11
2023-05-15T12:28:34.211Z,30.52
2023-05-15T12:31:00.900Z,31.14
2023-05-15T12:33:27.823Z,31.41
2023-05-15T12:35:59.961Z,31.42
2023-05-15T12:38:28.224Z,31.14
2023-05-15T12:40:54.986Z,31.16
2023-05-15T12:43:25.185Z,31.16
2023-05-15T12:45:53.271Z,31.27
2023-05-15T12:48:21.589Z,31.35
2023-05-15T12:50:48.577Z,31.60
2023-05-15T12:53:16.359Z,31.62
2023-05-15T12:55:46.214Z,31.99
2023-05-15T12:58:14.984Z,32.12
2023-05-15T13:00:44.866Z,31.91
2023-05-15T13:03:12.981Z,32.35
2023-05-15T13:05:42.958Z,31.81
2023-05-15T13:08:14.224Z,31.52
2023-05-15T13:10:40.807Z,31.85
2023-05-15T13:13:07.450Z,32.28
2023-05-15T13:15:44.961Z,31.62
2023-05-15T13:18:16.771Z,30.46
2023-05-15T13:20:53.906Z,30.05
2023-05-15T13:23:23.960Z,29.03
2023-05-15T13:25:50.642Z,26.57
2023-05-15T13:28:17.215Z,25.43
2023-05-15T13:30:43.894Z,24.03
2023-05-15T13:33:12.408Z,22.56
2023-05-15T13:35:40.393Z,21.69
2023-05-15T13:38:09.470Z,21.37
2023-05-15T13:40:38.016Z,21.10
2023-05-15T13:43:06.474Z,20.68
2023-05-15T13:45:33.298Z,20.25
2023-05-15T13:48:00.071Z,20.35
2023-05-15T13:50:27.097Z,20.53
2023-05-15T13:52:54.585Z,20.59
2023-05-15T13:55:28.108Z,20.45
2023-05-15T13:57:54.970Z,20.43
2023-05-15T14:00:21.684Z,20.43
2023-05-15T14:02:48.318Z,20.65
2023-05-15T14:05:16.268Z,20.55
2023-05-15T14:07:43.921Z,20.63
2023-05-15T14:10:11.238Z,20.57
2023-05-15T14:12:38.354Z,20.15
2023-05-15T14:15:05.434Z,19.91
2023-05-15T14:17:32.033Z,19.88
2023-05-15T14:19:58.691Z,20.02
2023-05-15T14:22:25.417Z,19.98
2023-05-15T14:24:53.244Z,19.69
2023-05-15T14:27:19.972Z,19.60
2023-05-15T14:29:48.374Z,19.10
2023-05-15T14:32:16.097Z,18.99
2023-05-15T14:34:42.866Z,18.88
2023-05-15T14:37:09.477Z,18.67
2023-05-15T14:39:36.141Z,18.71
2023-05-15T14:42:02.687Z,18.68
2023-05-15T14:44:29.269Z,18.72
2023-05-15T14:47:09.565Z,18.64
2023-05-15T14:49:37.709Z,18.50
2023-05-15T14:52:06.496Z,18.44
2023-05-15T14:54:33.234Z,18.75
2023-05-15T14:56:59.822Z,19.22
2023-05-15T14:59:27.840Z,19.50
2023-05-15T15:01:54.777Z,20.02
2023-05-15T15:04:21.385Z,20.08
2023-05-15T15:06:48.306Z,20.31
2023-05-15T15:09:14.850Z,20.25
2023-05-15T15:11:41.524Z,20.08
2023-05-15T15:14:08.120Z,20.18
2023-05-15T15:16:34.765Z,20.17
2023-05-15T15:19:01.499Z,20.01
2023-05-15T15:21:28.269Z,20.02
2023-05-15T15:23:55.248Z,19.81
2023-05-15T15:26:21.872Z,19.73
2023-05-15T15:28:48.521Z,19.57
2023-05-15T15:31:15.737Z,19.75
2023-05-15T15:33:42.397Z,19.66
2023-05-15T15:36:08.999Z,19.70
2023-05-15T15:38:35.943Z,19.63
2023-05-15T15:41:05.528Z,19.41
2023-05-15T15:43:32.157Z,19.32
2023-05-15T15:45:58.768Z,19.19
2023-05-15T15:48:25.651Z,19.06
2023-05-15T15:50:52.354Z,18.99
2023-05-15T15:53:18.958Z,18.82
2023-05-15T15:55:47.147Z,18.73
2023-05-15T15:58:14.583Z,18.67
2023-05-15T16:00:41.309Z,18.58
2023-05-15T16:03:08.213Z,18.72
2023-05-15T16:05:35.028Z,18.60
2023-05-15T16:08:01.658Z,18.58
2023-05-15T16:10:28.380Z,18.50
2023-05-15T16:12:55.198Z,18.41
2023-05-15T16:15:23.790Z,18.38
2023-05-15T16:17:53.049Z,18.33
2023-05-15T16:20:20.379Z,18.24
2023-05-15T16:22:46.984Z,18.37
2023-05-15T16:25:13.606Z,18.31
2023-05-15T16:27:40.237Z,18.27
2023-05-15T16:30:07.460Z,18.24
2023-05-15T16:32:34.214Z,18.26
2023-05-15T16:35:01.028Z,18.21
2023-05-15T16:37:27.733Z,18.09
2023-05-15T16:39:54.327Z,18.07
2023-05-15T16:42:20.884Z,18.00
2023-05-15T16:44:47.519Z,18.07
2023-05-15T16:47:14.160Z,18.10
2023-05-15T16:49:44.025Z,18.14
2023-05-15T16:52:11.200Z,18.14
2023-05-15T16:54:37.725Z,17.92
2023-05-15T16:57:04.483Z,17.87
2023-05-15T16:59:31.297Z,18.04
2023-05-15T17:01:59.047Z,17.99
2023-05-15T17:04:25.884Z,18.01
2023-05-15T17:06:53.324Z,18.01
2023-05-15T17:09:21.270Z,17.65
2023-05-15T17:11:47.954Z,17.73
2023-05-15T17:14:14.686Z,17.78
2023-05-15T17:16:41.299Z,17.63
2023-05-15T17:19:07.919Z,17.65
2023-05-15T17:21:34.980Z,17.56
2023-05-15T17:24:01.668Z,17.46
2023-05-15T17:26:28.426Z,17.46
2023-05-15T17:28:55.018Z,17.45
2023-05-15T17:31:21.607Z,17.41
2023-05-15T17:33:48.347Z,17.30
2023-05-15T17:36:14.961Z,17.27
2023-05-15T17:38:41.521Z,17.25
2023-05-15T17:41:08.149Z,17.20
2023-05-15T17:43:34.738Z,17.14
2023-05-15T17:46:01.342Z,17.00
2023-05-15T17:48:28.023Z,17.00
2023-05-15T17:50:54.613Z,16.91
2023-05-15T17:53:24.073Z,16.85
2023-05-15T17:55:50.710Z,16.84
2023-05-15T17:58:17.301Z,16.77
2023-05-15T18:00:43.877Z,16.67
2023-05-15T18:03:10.509Z,16.45
2023-05-15T18:05:37.121Z,16.49
2023-05-15T18:08:03.977Z,16.29
2023-05-15T18:10:31.093Z,16.25
2023-05-15T18:12:58.121Z,16.29
2023-05-15T18:15:25.109Z,16.22
2023-05-15T18:17:52.142Z,16.16
2023-05-15T18:20:18.745Z,16.11
2023-05-15T18:22:45.977Z,16.01
2023-05-15T18:25:12.642Z,16.02
2023-05-15T18:27:39.522Z,15.97
2023-05-15T18:30:07.148Z,15.95
2023-05-15T18:32:34.018Z,15.97
2023-05-15T18:35:00.783Z,15.94
2023-05-15T18:37:27.418Z,15.90
2023-05-15T18:39:57.029Z,15.84
2023-05-15T18:42:25.309Z,15.75
2023-05-15T18:44:52.256Z,15.72
2023-05-15T18:47:18.981Z,15.71
2023-05-15T18:49:45.755Z,15.65
2023-05-15T18:52:12.717Z,15.67
2023-05-15T18:54:41.221Z,15.67
2023-05-15T18:57:08.249Z,15.63
2023-05-15T18:59:35.006Z,15.60
2023-05-15T19:02:01.678Z,15.58
2023-05-15T19:04:28.299Z,15.49
2023-05-15T19:06:54.905Z,15.37
2023-05-15T19:09:21.567Z,15.29
2023-05-15T19:11:51.645Z,15.24
2023-05-15T19:14:18.836Z,15.13
2023-05-15T19:16:46.166Z,15.12
2023-05-15T19:19:13.415Z,14.99
2023-05-15T19:21:40.102Z,14.79
2023-05-15T19:24:06.863Z,14.76
2023-05-15T19:26:33.771Z,14.71
2023-05-15T19:29:01.233Z,14.57
2023-05-15T19:31:31.835Z,14.51
2023-05-15T19:33:59.645Z,14.41
2023-05-15T19:36:26.615Z,14.31
2023-05-15T19:38:53.382Z,14.21
2023-05-15T19:41:20.017Z,14.13
2023-05-15T19:43:47.073Z,14.04
2023-05-15T19:46:13.952Z,13.96
2023-05-15T19:48:40.710Z,13.89
2023-05-15T19:51:07.542Z,13.80
2023-05-15T19:53:34.379Z,13.72
2023-05-15T19:56:00.996Z,13.72
2023-05-15T19:58:27.928Z,13.70
2023-05-15T20:00:54.973Z,13.70
2023-05-15T20:03:22.262Z,13.66
2023-05-15T20:05:48.981Z,13.66
2023-05-15T20:08:17.152Z,13.63
2023-05-15T20:10:44.451Z,13.66
2023-05-15T20:13:11.640Z,13.66
2023-05-15T20:15:39.862Z,13.62
2023-05-15T20:18:07.237Z,13.61
2023-05-15T20:20:34.091Z,13.58
2023-05-15T20:23:00.662Z,13.53
2023-05-15T20:25:28.934Z,13.56
2023-05-15T20:27:57.055Z,13.52
2023-05-15T20:30:24.575Z,13.49
2023-05-15T20:32:51.518Z,13.51
2023-05-15T20:35:18.513Z,13.49
2023-05-15T20:37:46.181Z,13.49
2023-05-15T20:40:13.111Z,13.46
2023-05-15T20:42:40.016Z,13.46
2023-05-15T20:45:08.551Z,13.46
2023-05-15T20:47:35.882Z,13.46
2023-05-15T20:50:02.750Z,13.42
2023-05-15T20:52:29.392Z,13.42
2023-05-15T20:54:55.975Z,13.42
2023-05-15T20:57:22.589Z,13.41
2023-05-15T20:59:49.218Z,13.43
2023-05-15T21:02:16.045Z,13.48
2023-05-15T21:04:42.941Z,13.52
2023-05-15T21:07:09.928Z,13.59
2023-05-15T21:09:36.596Z,13.61
2023-05-15T21:12:04.013Z,13.59
2023-05-15T21:14:31.040Z,13.61
2023-05-15T21:16:57.765Z,13.58
2023-05-15T21:19:24.510Z,13.53
2023-05-15T21:21:51.145Z,13.49
2023-05-15T21:24:18.067Z,13.38
2023-05-15T21:26:45.221Z,13.28
2023-05-15T21:29:11.878Z,13.16
2023-05-15T21:31:38.631Z,13.05
2023-05-15T21:34:05.267Z,13.02
2023-05-15T21:36:31.860Z,12.98
2023-05-15T21:38:58.408Z,13.10
2023-05-15T21:41:26.018Z,13.05
2023-05-15T21:43:52.728Z,13.07
2023-05-15T21:46:19.412Z,13.08
2023-05-15T21:48:46.614Z,13.07
2023-05-15T21:51:13.397Z,13.18
2023-05-15T21:53:40.000Z,13.16
2023-05-15T21:56:07.298Z,13.12
2023-05-15T21:58:33.921Z,13.14
2023-05-15T22:01:00.588Z,13.21
2023-05-15T22:03:27.609Z,13.28
2023-05-15T22:05:54.289Z,13.25
2023-05-15T22:08:21.324Z,13.22
2023-05-15T22:10:48.831Z,13.18
2023-05-15T22:13:15.650Z,13.16
2023-05-15T22:15:42.311Z,13.21
2023-05-15T22:18:09.122Z,13.21
2023-05-15T22:20:36.188Z,13.21
2023-05-15T22:23:02.914Z,13.19
2023-05-15T22:25:29.600Z,13.24
2023-05-15T22:27:56.490Z,13.24
2023-05-15T22:30:23.182Z,13.31
2023-05-15T22:32:49.972Z,13.39
2023-05-15T22:35:16.879Z,13.36
2023-05-15T22:37:45.333Z,13.39
2023-05-15T22:40:12.722Z,13.35
2023-05-15T22:42:39.297Z,13.32
2023-05-15T22:45:07.090Z,13.28
2023-05-15T22:47:33.864Z,13.35
2023-05-15T22:50:00.889Z,13.38
2023-05-15T22:52:27.520Z,13.36
2023-05-15T22:54:54.062Z,13.35
2023-05-15T22:57:20.631Z,13.46
2023-05-15T22:59:47.235Z,13.51
2023-05-15T23:02:13.874Z,13.58
2023-05-15T23:04:40.568Z,13.59
2023-05-15T23:07:07.117Z,13.65
2023-05-15T23:09:33.686Z,13.65
2023-05-15T23:12:00.676Z,13.74
2023-05-15T23:14:27.336Z,13.77
2023-05-15T23:16:53.919Z,13.84
2023-05-15T23:19:20.760Z,13.87
2023-05-15T23:21:47.643Z,13.89
2023-05-15T23:24:14.433Z,13.87
2023-05-15T23:26:41.011Z,13.89
2023-05-15T23:29:07.583Z,13.83
2023-05-15T23:31:34.305Z,13.80
2023-05-15T23:34:01.000Z,13.80
2023-05-15T23:36:27.579Z,13.79
2023-05-15T23:38:54.289Z,13.84
2023-05-15T23:41:22.730Z,13.80
2023-05-15T23:43:52.231Z,13.77
2023-05-15T23:46:18.953Z,13.79
2023-05-15T23:48:45.817Z,13.80
2023-05-15T23:51:12.429Z,13.82
2023-05-15T23:53:39.003Z,13.77
2023-05-15T23:56:06.261Z,13.72
2023-05-15T23:58:33.382Z,13.73
